createdAt,value
2022-11-25T00:00:33.410Z,97574.06
2022-11-25T00:02:59.847Z,97572.09
2022-11-25T00:05:28.158Z,97566.44
2022-11-25T00:07:54.495Z,97564.25
2022-11-25T00:10:22.422Z,97563.09
2022-11-25T00:12:48.857Z,97562.75
2022-11-25T00:15:17.082Z,97564.84
2022-11-25T00:17:43.329Z,97561.00
2022-11-25T00:20:10.623Z,97566.78
2022-11-25T00:22:36.937Z,97555.00
2022-11-25T00:25:04.352Z,97558.13
2022-11-25T00:27:30.796Z,97555.94
2022-11-25T00:29:57.087Z,97548.66
2022-11-25T00:32:24.952Z,97542.78
2022-11-25T00:34:51.240Z,97540.59
2022-11-25T00:37:17.518Z,97546.38
2022-11-25T00:39:43.845Z,97546.81
2022-11-25T00:42:10.112Z,97546.25
2022-11-25T00:44:37.294Z,97550.16
2022-11-25T00:47:03.899Z,97546.91
2022-11-25T00:49:30.275Z,97549.22
2022-11-25T00:51:57.443Z,97550.25
2022-11-25T00:54:24.279Z,97554.16
2022-11-25T00:56:52.409Z,97566.88
2022-11-25T00:59:18.761Z,97565.47
2022-11-25T01:01:46.387Z,97552.91
2022-11-25T01:04:13.091Z,97550.69
2022-11-25T01:06:39.379Z,97554.41
2022-11-25T01:09:06.403Z,97562.56
2022-11-25T01:11:34.219Z,97566.25
2022-11-25T01:14:02.066Z,97557.72
2022-11-25T01:16:28.424Z,97557.94
2022-11-25T01:18:54.770Z,97558.16
2022-11-25T01:21:21.063Z,97560.22
2022-11-25T01:23:47.404Z,97560.47
2022-11-25T01:26:15.176Z,97565.41
2022-11-25T01:28:43.824Z,97558.50
2022-11-25T01:31:11.277Z,97570.34
2022-11-25T01:33:37.862Z,97559.97
2022-11-25T01:36:04.138Z,97557.78
2022-11-25T01:38:30.422Z,97556.63
2022-11-25T01:40:58.227Z,97556.63
2022-11-25T01:43:24.829Z,97550.16
2022-11-25T01:45:51.225Z,97552.22
2022-11-25T01:48:17.973Z,97556.91
2022-11-25T01:50:44.325Z,97554.72
2022-11-25T01:53:10.592Z,97555.97
2022-11-25T01:55:38.316Z,97557.22
2022-11-25T01:58:05.257Z,97550.53
2022-11-25T02:00:32.698Z,97556.06
2022-11-25T02:03:01.528Z,97561.59
2022-11-25T02:05:33.643Z,97560.19
2022-11-25T02:08:02.006Z,97557.75
2022-11-25T02:10:28.293Z,97554.53
2022-11-25T02:12:54.536Z,97560.06
2022-11-25T02:15:20.893Z,97554.75
2022-11-25T02:17:47.186Z,97555.78
2022-11-25T02:20:13.495Z,97562.94
2022-11-25T02:22:39.784Z,97547.47
2022-11-25T02:25:07.222Z,97551.16
2022-11-25T02:27:33.481Z,97539.97
2022-11-25T02:29:59.818Z,97525.34
2022-11-25T02:32:26.732Z,97531.66
2022-11-25T02:34:53.997Z,97535.34
2022-11-25T02:37:20.425Z,97533.16
2022-11-25T02:39:46.956Z,97536.00
2022-11-25T02:42:13.331Z,97538.88
2022-11-25T02:44:39.899Z,97551.53
2022-11-25T02:47:06.168Z,97527.16
2022-11-25T02:49:35.047Z,97535.50
2022-11-25T02:52:01.550Z,97534.91
2022-11-25T02:54:28.089Z,97535.16
2022-11-25T02:56:54.860Z,97533.78
2022-11-25T02:59:21.217Z,97519.94
2022-11-25T03:01:49.893Z,97527.28
2022-11-25T03:09:51.195Z,97509.63
2022-11-25T03:12:17.612Z,97515.97
2022-11-25T03:14:43.907Z,97517.03
2022-11-25T03:17:10.753Z,97518.03
2022-11-25T03:19:37.096Z,97528.03
2022-11-25T03:22:05.144Z,97519.53
2022-11-25T03:24:33.466Z,97515.25
2022-11-25T03:26:59.933Z,97518.13
2022-11-25T03:29:26.246Z,97518.34
2022-11-25T03:31:54.763Z,97524.66
2022-11-25T03:34:21.124Z,97522.22
2022-11-25T03:36:50.200Z,97513.69
2022-11-25T03:39:16.512Z,97503.34
2022-11-25T03:41:42.785Z,97511.50
2022-11-25T03:44:10.929Z,97504.59
2022-11-25T03:46:37.284Z,97507.47
2022-11-25T03:49:03.559Z,97525.41
2022-11-25T03:51:31.069Z,97512.19
2022-11-25T03:53:57.416Z,97520.34
2022-11-25T03:56:24.985Z,97517.09
2022-11-25T03:58:52.934Z,97513.84
2022-11-25T04:01:19.454Z,97528.31
2022-11-25T04:03:46.966Z,97525.69
2022-11-25T04:06:15.005Z,97535.47
2022-11-25T04:08:43.953Z,97530.19
2022-11-25T04:11:10.769Z,97527.53
2022-11-25T04:13:37.546Z,97523.84
2022-11-25T04:16:03.783Z,97523.63
2022-11-25T04:18:30.150Z,97518.56
2022-11-25T04:20:57.816Z,97524.66
2022-11-25T04:23:24.284Z,97521.22
2022-11-25T04:25:50.974Z,97525.69
2022-11-25T04:28:18.175Z,97520.38
2022-11-25T04:30:45.759Z,97520.63
2022-11-25T04:33:12.065Z,97523.25
2022-11-25T04:35:38.704Z,97525.13
2022-11-25T04:38:04.967Z,97527.75
2022-11-25T04:40:33.629Z,97527.75
2022-11-25T04:43:04.873Z,97526.72
2022-11-25T04:45:51.854Z,97531.78
2022-11-25T04:48:21.944Z,97538.91
2022-11-25T04:50:48.302Z,97537.09
2022-11-25T04:53:16.622Z,97540.78
2022-11-25T04:55:44.851Z,97537.31
2022-11-25T04:58:11.170Z,97539.94
2022-11-25T05:00:38.200Z,97546.06
2022-11-25T05:03:04.720Z,97539.34
2022-11-25T05:05:32.927Z,97531.88
2022-11-25T05:07:59.246Z,97534.72
2022-11-25T05:10:27.079Z,97543.91
2022-11-25T05:12:53.590Z,97538.03
2022-11-25T05:15:20.151Z,97532.13
2022-11-25T05:17:46.477Z,97532.59
2022-11-25T05:20:12.958Z,97543.38
2022-11-25T05:22:41.695Z,97535.66
2022-11-25T05:25:08.478Z,97537.72
2022-11-25T05:27:36.738Z,97534.47
2022-11-25T05:30:03.049Z,97532.06
2022-11-25T05:32:29.446Z,97545.50
2022-11-25T05:34:56.526Z,97547.53
2022-11-25T05:37:24.713Z,97549.56
2022-11-25T05:39:51.809Z,97568.31
2022-11-25T05:42:18.145Z,97550.00
2022-11-25T05:44:46.171Z,97559.00
2022-11-25T05:47:12.516Z,97550.47
2022-11-25T05:49:38.822Z,97546.19
2022-11-25T05:52:05.122Z,97559.41
2022-11-25T05:54:32.746Z,97555.38
2022-11-25T05:56:59.300Z,97545.59
2022-11-25T05:59:25.656Z,97543.38
2022-11-25T06:01:53.517Z,97533.84
2022-11-25T06:04:22.673Z,97520.03
2022-11-25T06:06:48.955Z,97526.31
2022-11-25T06:09:15.282Z,97528.19
2022-11-25T06:11:43.609Z,97534.69
2022-11-25T06:14:09.909Z,97527.81
2022-11-25T06:16:37.692Z,97528.81
2022-11-25T06:19:03.999Z,97537.78
2022-11-25T06:21:32.243Z,97530.66
2022-11-25T06:23:58.921Z,97529.25
2022-11-25T06:26:25.160Z,97519.72
2022-11-25T06:28:51.523Z,97529.47
2022-11-25T06:31:18.599Z,97529.69
2022-11-25T06:33:46.108Z,97542.91
2022-11-25T06:36:14.157Z,97541.88
2022-11-25T06:38:40.520Z,97552.66
2022-11-25T06:41:07.081Z,97548.19
2022-11-25T06:43:33.568Z,97542.91
2022-11-25T06:45:59.998Z,97552.66
2022-11-25T06:48:28.107Z,97565.88
2022-11-25T06:50:58.535Z,97546.56
2022-11-25T06:53:24.915Z,97545.56
2022-11-25T06:55:51.191Z,97549.19
2022-11-25T06:58:34.861Z,97541.28
2022-11-25T07:01:05.118Z,97523.81
2022-11-25T07:03:31.590Z,97551.06
2022-11-25T07:05:58.373Z,97532.34
2022-11-25T07:08:28.276Z,97546.78
2022-11-25T07:10:58.682Z,97545.03
2022-11-25T07:13:26.489Z,97561.34
2022-11-25T07:15:54.266Z,97572.22
2022-11-25T07:18:20.692Z,97591.88
2022-11-25T07:20:48.248Z,97600.66
2022-11-25T07:23:14.507Z,97605.88
2022-11-25T07:25:40.784Z,97608.38
2022-11-25T07:28:09.394Z,97620.97
2022-11-25T07:31:22.131Z,97627.13
2022-11-25T07:33:25.818Z,97623.22
2022-11-25T07:35:54.740Z,97615.50
2022-11-25T07:38:20.995Z,97625.75
2022-11-25T07:40:47.292Z,97633.41
2022-11-25T07:43:15.840Z,97638.38
2022-11-25T07:45:43.928Z,97639.31
2022-11-25T07:48:10.368Z,97642.88
2022-11-25T07:50:36.643Z,97646.44
2022-11-25T07:53:04.546Z,97650.03
2022-11-25T07:55:32.440Z,97651.78
2022-11-25T07:57:58.696Z,97651.06
2022-11-25T08:00:25.456Z,97655.69
2022-11-25T08:02:51.840Z,97656.59
2022-11-25T08:05:18.239Z,97658.56
2022-11-25T08:07:45.424Z,97654.41
2022-11-25T08:10:13.220Z,97653.69
2022-11-25T08:12:41.304Z,97652.97
2022-11-25T08:15:08.525Z,97654.13
2022-11-25T08:17:35.125Z,97657.38
2022-11-25T08:20:01.447Z,97653.22
2022-11-25T08:22:27.980Z,97659.06
2022-11-25T08:24:54.608Z,97663.94
2022-11-25T08:27:22.792Z,97662.88
2022-11-25T08:29:50.263Z,97661.88
2022-11-25T08:32:16.567Z,97661.97
2022-11-25T08:34:44.700Z,97660.44
2022-11-25T08:37:10.999Z,97668.53
2022-11-25T08:39:52.568Z,97663.75
2022-11-25T08:42:22.917Z,97673.94
2022-11-25T08:44:49.711Z,97665.50
2022-11-25T08:47:16.414Z,97669.50
2022-11-25T08:49:43.392Z,97671.16
2022-11-25T08:52:10.367Z,97679.50
2022-11-25T08:54:36.889Z,97681.66
2022-11-25T08:57:03.151Z,97676.09
2022-11-25T08:59:29.604Z,97680.16
2022-11-25T09:01:56.848Z,97678.06
2022-11-25T09:04:25.144Z,97675.19
2022-11-25T09:06:52.612Z,97677.59
2022-11-25T09:09:18.872Z,97682.44
2022-11-25T09:11:45.326Z,97687.28
2022-11-25T09:14:12.399Z,97684.41
2022-11-25T09:16:39.023Z,97681.50
2022-11-25T09:19:05.359Z,97698.56
2022-11-25T09:21:33.138Z,97692.81
2022-11-25T09:23:59.428Z,97696.03
2022-11-25T09:26:26.302Z,97693.13
2022-11-25T09:28:52.634Z,97697.16
2022-11-25T09:31:19.030Z,97697.72
2022-11-25T09:33:45.368Z,97704.69
2022-11-25T09:36:11.718Z,97707.88
2022-11-25T09:38:42.986Z,97707.69
2022-11-25T09:41:09.721Z,97705.56
2022-11-25T09:43:37.560Z,97707.44
2022-11-25T09:46:04.050Z,97711.47
2022-11-25T09:48:30.343Z,97705.88
2022-11-25T09:50:56.691Z,97709.94
2022-11-25T09:53:25.992Z,97713.97
2022-11-25T09:55:55.892Z,97718.25
2022-11-25T09:58:24.888Z,97718.00
2022-11-25T10:00:51.194Z,97709.78
2022-11-25T10:03:17.525Z,97712.22
2022-11-25T10:05:43.894Z,97717.84
2022-11-25T10:08:11.398Z,97720.28
2022-11-25T10:10:38.181Z,97723.28
2022-11-25T10:13:04.882Z,97724.91
2022-11-25T10:15:31.266Z,97725.47
2022-11-25T10:17:57.581Z,97720.72
2022-11-25T10:20:26.164Z,97723.38
2022-11-25T10:22:52.474Z,97728.72
2022-11-25T10:25:18.835Z,97731.91
2022-11-25T10:27:45.560Z,97730.88
2022-11-25T10:30:12.954Z,97735.72
2022-11-25T10:32:39.390Z,97729.38
2022-11-25T10:35:05.784Z,97733.06
2022-11-25T10:37:32.112Z,97733.88
2022-11-25T10:39:59.004Z,97736.28
2022-11-25T10:42:25.565Z,97736.88
2022-11-25T10:44:51.891Z,97742.75
2022-11-25T10:47:20.374Z,97734.78
2022-11-25T10:49:47.975Z,97732.91
2022-11-25T10:52:14.453Z,97737.97
2022-11-25T10:54:41.109Z,97741.22
2022-11-25T10:57:09.437Z,97737.53
2022-11-25T10:59:36.048Z,97745.50
2022-11-25T11:02:04.909Z,97744.44
2022-11-25T11:04:31.674Z,97755.69
2022-11-25T11:06:58.787Z,97745.03
2022-11-25T11:09:25.231Z,97751.50
2022-11-25T11:11:51.640Z,97753.66
2022-11-25T11:14:17.915Z,97741.94
2022-11-25T11:16:44.446Z,97756.44
2022-11-25T11:19:10.775Z,97756.19
2022-11-25T11:21:38.018Z,97755.16
2022-11-25T11:24:04.460Z,97756.53
2022-11-25T11:26:30.720Z,97754.44
2022-11-25T11:28:57.600Z,97761.38
2022-11-25T11:31:23.902Z,97755.25
2022-11-25T11:33:50.187Z,97764.84
2022-11-25T11:36:17.286Z,97767.50
2022-11-25T11:38:43.625Z,97775.00
2022-11-25T11:41:09.912Z,97774.78
2022-11-25T11:43:36.732Z,97772.13
2022-11-25T11:46:04.268Z,97771.31
2022-11-25T11:48:31.500Z,97777.47
2022-11-25T11:50:57.886Z,97780.13
2022-11-25T11:53:24.275Z,97780.34
2022-11-25T11:56:11.772Z,97784.88
2022-11-25T11:58:37.041Z,97791.00
2022-11-25T12:01:03.646Z,97785.47
2022-11-25T12:03:30.166Z,97789.72
2022-11-25T12:05:56.617Z,97784.38
2022-11-25T12:08:22.911Z,97785.47
2022-11-25T12:10:49.502Z,97785.47
2022-11-25T12:13:15.923Z,97782.78
2022-11-25T12:15:44.213Z,97789.97
2022-11-25T12:18:10.924Z,97783.81
2022-11-25T12:20:37.226Z,97791.00
2022-11-25T12:23:04.252Z,97788.34
2022-11-25T12:25:30.551Z,97793.91
2022-11-25T12:27:56.803Z,97788.81
2022-11-25T12:30:23.088Z,97799.72
2022-11-25T12:32:50.008Z,97789.06
2022-11-25T12:35:17.153Z,97791.72
2022-11-25T12:37:43.672Z,97781.66
2022-11-25T12:40:10.013Z,97789.16
2022-11-25T12:42:36.327Z,97790.78
2022-11-25T12:45:02.609Z,97791.09
2022-11-25T12:47:28.980Z,97796.19
2022-11-25T12:49:55.385Z,97797.88
2022-11-25T12:52:21.667Z,97794.97
2022-11-25T12:54:48.073Z,97801.94
2022-11-25T12:57:14.945Z,97803.22
2022-11-25T12:59:41.249Z,97817.34
2022-11-25T13:02:09.721Z,97818.16
2022-11-25T13:04:36.451Z,97817.34
2022-11-25T13:07:03.327Z,97814.44
2022-11-25T13:09:32.207Z,97815.25
2022-11-25T13:11:59.604Z,97823.00
2022-11-25T13:14:27.332Z,97823.81
2022-11-25T13:16:54.486Z,97821.94
2022-11-25T13:19:22.603Z,97821.16
2022-11-25T13:21:49.010Z,97820.34
2022-11-25T13:24:15.753Z,97815.00
2022-11-25T13:26:43.150Z,97816.06
2022-11-25T13:29:09.459Z,97822.75
2022-11-25T13:31:36.838Z,97822.75
2022-11-25T13:34:03.376Z,97835.06
2022-11-25T13:36:30.497Z,97822.09
2022-11-25T13:38:58.628Z,97846.50
2022-11-25T13:41:27.128Z,97843.84
2022-11-25T13:43:53.388Z,97852.41
2022-11-25T13:46:19.782Z,97852.25
2022-11-25T13:48:46.459Z,97856.06
2022-11-25T13:51:13.018Z,97859.84
2022-11-25T13:53:40.651Z,97868.19
2022-11-25T13:56:06.961Z,97858.63
2022-11-25T13:58:33.268Z,97867.53
2022-11-25T14:00:59.759Z,97871.66
2022-11-25T14:03:26.435Z,97875.53
2022-11-25T14:05:53.892Z,97883.69
2022-11-25T14:08:20.155Z,97891.28
2022-11-25T14:10:48.173Z,97882.91
2022-11-25T14:13:14.563Z,97888.63
2022-11-25T14:15:40.842Z,97889.25
2022-11-25T14:18:09.314Z,97898.69
2022-11-25T14:20:35.684Z,97895.06
2022-11-25T14:23:02.285Z,97897.28
2022-11-25T14:25:28.595Z,97906.69
2022-11-25T14:28:00.913Z,97904.31
2022-11-25T14:30:30.460Z,97908.38
2022-11-25T14:32:57.886Z,97898.47
2022-11-25T14:35:25.909Z,97906.50
2022-11-25T14:37:53.338Z,97909.41
2022-11-25T14:41:32.079Z,97911.25
2022-11-25T14:43:59.080Z,97918.50
2022-11-25T14:46:25.518Z,97915.00
2022-11-25T14:48:52.496Z,97923.25
2022-11-25T14:51:19.376Z,97916.78
2022-11-25T14:53:48.392Z,97915.66
2022-11-25T14:56:15.300Z,97914.88
2022-11-25T14:58:44.060Z,97914.88
2022-11-25T15:01:11.525Z,97920.69
2022-11-25T15:03:38.433Z,97927.59
2022-11-25T15:06:05.399Z,97941.41
2022-11-25T15:08:31.664Z,97930.44
2022-11-25T15:10:58.789Z,97935.44
2022-11-25T15:13:28.977Z,97938.59
2022-11-25T15:15:55.506Z,97921.47
2022-11-25T15:18:23.320Z,97929.94
2022-11-25T15:20:49.652Z,97930.44
2022-11-25T15:23:15.948Z,97935.19
2022-11-25T15:25:44.132Z,97936.72
2022-11-25T15:28:10.537Z,97949.53
2022-11-25T15:30:37.958Z,97946.53
2022-11-25T15:33:04.659Z,97945.72
2022-11-25T15:35:34.328Z,97955.00
2022-11-25T15:38:00.734Z,97952.81
2022-11-25T15:40:28.909Z,97956.28
2022-11-25T15:42:55.266Z,97958.38
2022-11-25T15:45:21.552Z,97962.13
2022-11-25T15:47:47.886Z,97964.22
2022-11-25T15:50:15.794Z,97971.66
2022-11-25T15:52:42.034Z,97972.47
2022-11-25T15:55:08.358Z,97976.16
2022-11-25T15:57:36.586Z,97975.34
2022-11-25T16:00:03.072Z,97980.91
2022-11-25T16:02:30.849Z,97977.47
2022-11-25T16:05:01.900Z,97978.50
2022-11-25T16:07:32.015Z,97981.16
2022-11-25T16:09:58.859Z,97980.59
2022-11-25T16:12:26.376Z,97988.59
2022-11-25T16:14:53.013Z,97989.66
2022-11-25T16:17:20.258Z,98003.00
2022-11-25T16:19:46.618Z,98002.41
2022-11-25T16:22:13.235Z,98006.16
2022-11-25T16:24:41.745Z,98012.53
2022-11-25T16:27:08.103Z,98017.03
2022-11-25T16:29:35.086Z,98021.59
2022-11-25T16:32:01.780Z,98017.28
2022-11-25T16:34:29.615Z,98019.16
2022-11-25T16:36:56.840Z,98021.00
2022-11-25T16:39:23.789Z,98016.69
2022-11-25T16:41:54.001Z,98024.69
2022-11-25T16:44:22.506Z,98020.44
2022-11-25T16:46:48.776Z,98034.81
2022-11-25T16:49:15.142Z,98041.19
2022-11-25T16:51:42.042Z,98036.91
2022-11-25T16:54:09.779Z,98038.75
2022-11-25T16:56:38.545Z,98047.59
2022-11-25T16:59:06.777Z,98054.53
2022-11-25T17:01:35.044Z,98059.06
2022-11-25T17:04:03.556Z,98058.25
2022-11-25T17:06:31.774Z,98061.94
2022-11-25T17:08:58.045Z,98056.63
2022-11-25T17:11:24.371Z,98071.84
2022-11-25T17:13:50.671Z,98072.06
2022-11-25T17:16:17.210Z,98070.19
2022-11-25T17:18:44.448Z,98080.06
2022-11-25T17:21:10.839Z,98079.00
2022-11-25T17:23:39.016Z,98075.53
2022-11-25T17:26:06.912Z,98081.69
2022-11-25T17:28:33.359Z,98087.00
2022-11-25T17:30:59.584Z,98088.06
2022-11-25T17:33:25.915Z,98092.34
2022-11-25T17:35:52.352Z,98096.06
2022-11-25T17:38:18.789Z,98100.34
2022-11-25T17:40:45.116Z,98101.16
2022-11-25T17:43:12.172Z,98102.19
2022-11-25T17:45:38.575Z,98112.06
2022-11-25T17:48:05.889Z,98108.81
2022-11-25T17:50:32.288Z,98108.81
2022-11-25T17:52:59.697Z,98124.81
2022-11-25T17:55:27.686Z,98128.88
2022-11-25T17:57:57.119Z,98134.53
2022-11-25T18:00:24.231Z,98146.34
2022-11-25T18:02:52.456Z,98148.56
2022-11-25T18:05:19.963Z,98152.50
2022-11-25T18:07:46.886Z,98147.97
2022-11-25T18:10:16.986Z,98144.50
2022-11-25T18:12:43.692Z,98142.63
2022-11-25T18:15:10.868Z,98150.63
2022-11-25T18:17:37.407Z,98157.63
2022-11-25T18:20:03.880Z,98171.63
2022-11-25T18:22:30.258Z,98174.97
2022-11-25T18:24:56.577Z,98182.88
2022-11-25T18:27:22.855Z,98186.53
2022-11-25T18:29:50.324Z,98192.56
2022-11-25T18:32:16.843Z,98206.09
2022-11-25T18:34:43.765Z,98188.91
2022-11-25T18:37:11.976Z,98205.81
2022-11-25T18:39:38.566Z,98209.59
2022-11-25T18:42:04.916Z,98204.84
2022-11-25T18:44:31.198Z,98205.19
2022-11-25T18:46:58.788Z,98209.47
2022-11-25T18:49:25.080Z,98207.59
2022-11-25T18:51:52.301Z,98207.69
2022-11-25T18:54:21.742Z,98209.41
2022-11-25T18:56:50.151Z,98215.41
2022-11-25T18:59:16.485Z,98227.59
2022-11-25T19:01:48.257Z,98220.44
2022-11-25T19:04:16.332Z,98233.09
2022-11-25T19:06:43.376Z,98224.03
2022-11-25T19:09:10.131Z,98236.13
2022-11-25T19:11:37.365Z,98232.97
2022-11-25T19:14:03.935Z,98243.41
2022-11-25T19:16:30.289Z,98244.06
2022-11-25T19:18:56.650Z,98250.31
2022-11-25T19:21:24.444Z,98253.63
2022-11-25T19:23:50.662Z,98260.13
2022-11-25T19:26:16.982Z,98255.81
2022-11-25T19:28:46.016Z,98265.47
2022-11-25T19:31:12.844Z,98262.22
2022-11-25T19:33:39.124Z,98269.44
2022-11-25T19:36:05.725Z,98271.53
2022-11-25T19:38:32.584Z,98269.59
2022-11-25T19:41:00.296Z,98279.22
2022-11-25T19:43:26.543Z,98278.66
2022-11-25T19:45:53.216Z,98282.63
2022-11-25T19:48:19.869Z,98288.47
2022-11-25T19:50:46.833Z,98298.34
2022-11-25T19:53:13.779Z,98294.59
2022-11-25T19:55:42.037Z,98299.16
2022-11-25T19:58:08.371Z,98302.28
2022-11-25T20:00:34.667Z,98309.19
2022-11-25T20:03:01.065Z,98316.06
2022-11-25T20:05:29.100Z,98319.41
2022-11-25T20:07:55.535Z,98322.56
2022-11-25T20:10:22.388Z,98323.28
2022-11-25T20:12:49.060Z,98333.16
2022-11-25T20:15:17.829Z,98332.81
2022-11-25T20:17:44.757Z,98331.44
2022-11-25T20:20:11.064Z,98335.38
2022-11-25T20:22:37.645Z,98327.63
2022-11-25T20:25:05.156Z,98329.72
2022-11-25T20:27:31.543Z,98339.31
2022-11-25T20:29:57.788Z,98348.16
2022-11-25T20:32:25.046Z,98343.31
2022-11-25T20:34:51.319Z,98349.47
2022-11-25T20:37:18.851Z,98353.25
2022-11-25T20:39:45.155Z,98363.59
2022-11-25T20:42:12.548Z,98372.88
2022-11-25T20:44:39.072Z,98376.78
2022-11-25T20:47:07.238Z,98378.03
2022-11-25T20:49:33.549Z,98387.53
2022-11-25T20:51:59.880Z,98384.97
2022-11-25T20:54:26.187Z,98384.22
2022-11-25T20:56:52.501Z,98404.09
2022-11-25T20:59:18.740Z,98404.44
2022-11-25T21:01:46.006Z,98406.03
2022-11-25T21:04:12.353Z,98408.50
2022-11-25T21:06:41.122Z,98412.22
2022-11-25T21:09:09.649Z,98411.63
2022-11-25T21:11:36.567Z,98407.34
2022-11-25T21:14:02.870Z,98415.63
2022-11-25T21:16:29.282Z,98407.84
2022-11-25T21:18:55.653Z,98412.59
2022-11-25T21:21:24.658Z,98412.03
2022-11-25T21:23:51.588Z,98421.13
2022-11-25T21:26:17.914Z,98414.13
2022-11-25T21:28:44.295Z,98425.31
2022-11-25T21:31:11.846Z,98423.66
2022-11-25T21:33:39.622Z,98423.91
2022-11-25T21:36:06.371Z,98426.81
2022-11-25T21:38:32.896Z,98429.41
2022-11-25T21:40:59.561Z,98425.31
2022-11-25T21:43:26.507Z,98423.38
2022-11-25T21:45:54.813Z,98432.91
2022-11-25T21:48:21.459Z,98431.53
2022-11-25T21:50:47.802Z,98432.03
2022-11-25T21:53:15.378Z,98431.41
2022-11-25T21:55:42.184Z,98434.53
2022-11-25T21:58:10.378Z,98434.78
2022-11-25T22:00:36.835Z,98432.59
2022-11-25T22:03:06.571Z,98436.31
2022-11-25T22:05:33.444Z,98432.25
2022-11-25T22:08:00.731Z,98437.34
2022-11-25T22:10:27.917Z,98435.41
2022-11-25T22:12:55.377Z,98444.69
2022-11-25T22:15:21.853Z,98451.88
2022-11-25T22:17:48.123Z,98447.81
2022-11-25T22:20:14.422Z,98454.19
2022-11-25T22:22:40.762Z,98453.66
2022-11-25T22:25:07.103Z,98464.34
2022-11-25T22:27:34.116Z,98468.28
2022-11-25T22:30:01.154Z,98468.50
2022-11-25T22:32:29.017Z,98466.31
2022-11-25T22:34:55.717Z,98471.66
2022-11-25T22:37:21.980Z,98476.66
2022-11-25T22:39:48.593Z,98479.56
2022-11-25T22:42:16.642Z,98483.25
2022-11-25T22:44:42.915Z,98481.66
2022-11-25T22:47:09.179Z,98480.00
2022-11-25T22:49:36.876Z,98486.41
2022-11-25T22:52:03.191Z,98486.63
2022-11-25T22:54:29.462Z,98497.56
2022-11-25T22:56:56.764Z,98499.41
2022-11-25T22:59:23.568Z,98502.31
2022-11-25T23:01:49.922Z,98504.88
2022-11-25T23:04:16.268Z,98500.44
2022-11-25T23:06:43.742Z,98508.81
2022-11-25T23:09:10.039Z,98513.44
2022-11-25T23:11:40.018Z,98507.38
2022-11-25T23:14:06.626Z,98523.47
2022-11-25T23:16:33.069Z,98524.41
2022-11-25T23:18:59.928Z,98522.84
2022-11-25T23:21:26.260Z,98531.53
2022-11-25T23:23:53.136Z,98530.59
2022-11-25T23:26:19.903Z,98535.81
2022-11-25T23:28:49.401Z,98543.69
2022-11-25T23:31:17.951Z,98540.88
2022-11-25T23:33:44.248Z,98538.88
2022-11-25T23:36:12.091Z,98539.56
2022-11-25T23:38:38.369Z,98539.44
2022-11-25T23:41:06.157Z,98544.63
2022-11-25T23:43:34.812Z,98538.09
2022-11-25T23:46:02.850Z,98537.97
2022-11-25T23:48:29.197Z,98537.59
2022-11-25T23:50:55.818Z,98541.75
2022-11-25T23:53:22.671Z,98546.69
2022-11-25T23:55:49.932Z,98543.91
2022-11-25T23:58:16.522Z,98536.34
